Airfield :
LOGIN :

Register | Disclaimer

   EN    FR    IT 

 










Legend :    VFR   Marginal VFR   IFR   Intensive IFR   Very Intensive IFR
Visi :
Ceiling :
>= 8 km
>= 3000ft
5 to 8 km
1000 to 3000 ft
1500m to 5 km
500 to 1000 ft
800 to 1500m
200 to 500 ft
< 800m
< 200 ft
Symbols :   Thunderstorms  Fog  Heavy snow  Heavy precipitations  Wind > 20 kt
SIGMETs :     Misc.  Thunderstorms  Icing  Turbulence  Mountain Waves  Volcanic Ashes







- Airport Elevation : 50 ft
- IATA code : KOI
- Download approach charts


EGPA - Kirkwall

CURRENT METAR :
  • 121320Z 21005KT 9999 FEW016 04/02 Q0997

EXPIRED METARs :
  • 121250Z 21004KT 9999 FEW016 04/01 Q0997
  • 121220Z 23003KT 9999 FEW016 03/00 Q0997
  • 121150Z 24004KT 9999 FEW016 04/01 Q0998
  • 121120Z 24003KT 9999 FEW015 SCT044 04/01 Q0998
  • 121050Z 23003KT 9999 VCSH FEW015 SCT044 04/02 Q0998

TAF TAF EGPA
Valid from the 12 at 12:00 until the 12 at 21:00 UTC


121102Z 1212/1221 26005KT 9999 SCT030
BECMG 1212/1215 18012KT
TEMPO 1218/1221 18016G26KT 6000 RA BKN007
PROB30
TEMPO 1219/1221 4000 RADZ BKN005
No reported NOTAMs for that airfield.



MET'MAP, your aeronautical weather chart ! - Copyright ORBIFLY December 2007 - Disclaimer

ORBIFLY MET'MAP TEAM :

Programming & Development : Alexandra Zaïnal
Concept & Development : Baudouin d'Aumeries
Co-Development & Prog : Marc-Olivier Méhu
Technical & hardware support : Manuel Goepfert

Contact : metmap@orbifly.com




SOURCES & CREDITS :

   NOAA